createdAt,value
2018-04-01T00:00:04.396Z,4.53
2018-04-01T00:02:37.993Z,4.97
2018-04-01T00:05:12.228Z,4.57
2018-04-01T00:07:47.326Z,4.33
2018-04-01T00:10:21.586Z,4.20
2018-04-01T00:12:54.964Z,4.30
2018-04-01T00:15:29.271Z,3.97
2018-04-01T00:18:02.875Z,4.20
2018-04-01T00:20:37.531Z,4.30
2018-04-01T00:23:11.823Z,4.17
2018-04-01T00:25:46.142Z,4.37
2018-04-01T00:28:19.545Z,4.50
2018-04-01T00:30:52.939Z,7.00
2018-04-01T00:33:27.252Z,4.70
2018-04-01T00:36:01.367Z,4.40
2018-04-01T00:38:34.864Z,3.73
2018-04-01T00:41:07.941Z,3.90
2018-04-01T00:43:41.446Z,4.10
2018-04-01T00:46:17.310Z,4.90
2018-04-01T00:48:50.576Z,4.77
2018-04-01T00:51:23.971Z,5.50
2018-04-01T00:53:58.389Z,4.17
2018-04-01T00:56:32.399Z,4.10
2018-04-01T00:59:06.030Z,5.97
2018-04-01T01:01:40.825Z,3.73
2018-04-01T01:04:14.321Z,4.13
2018-04-01T01:06:50.096Z,4.60
2018-04-01T01:09:24.080Z,8.97
2018-04-01T01:11:58.090Z,4.50
2018-04-01T01:14:31.487Z,3.87
2018-04-01T01:17:06.210Z,4.50
2018-04-01T01:19:39.719Z,5.03
2018-04-01T01:22:13.089Z,4.53
2018-04-01T01:24:46.836Z,6.33
2018-04-01T01:27:20.619Z,3.90
2018-04-01T01:29:54.638Z,4.90
2018-04-01T01:32:29.339Z,4.47
2018-04-01T01:35:03.356Z,4.10
2018-04-01T01:37:36.911Z,4.30
2018-04-01T01:40:10.880Z,4.80
2018-04-01T01:42:44.256Z,5.47
2018-04-01T01:45:17.879Z,4.50
2018-04-01T01:47:51.375Z,5.33
2018-04-01T01:50:25.161Z,5.37
2018-04-01T01:52:59.888Z,5.00
2018-04-01T01:55:34.107Z,4.10
2018-04-01T01:58:08.948Z,4.53
2018-04-01T02:00:42.537Z,4.17
2018-04-01T02:03:17.756Z,4.20
2018-04-01T02:05:51.880Z,4.20
2018-04-01T02:08:26.074Z,4.83
2018-04-01T02:11:00.818Z,4.40
2018-04-01T02:13:35.353Z,4.20
2018-04-01T02:16:09.961Z,4.43
2018-04-01T02:18:44.086Z,4.80
2018-04-01T02:21:17.781Z,4.27
2018-04-01T02:23:52.025Z,4.00
2018-04-01T02:26:26.306Z,4.97
2018-04-01T02:28:59.605Z,4.67
2018-04-01T02:31:33.056Z,4.00
2018-04-01T02:34:07.308Z,4.00
2018-04-01T02:36:41.945Z,4.47
2018-04-01T02:39:15.345Z,4.13
2018-04-01T02:41:49.041Z,4.20
2018-04-01T02:44:22.354Z,4.27
2018-04-01T02:46:58.072Z,3.70
2018-04-01T02:49:32.090Z,4.63
2018-04-01T02:52:05.940Z,5.67
2018-04-01T02:54:39.199Z,4.83
2018-04-01T02:57:13.912Z,4.10
2018-04-01T02:59:49.765Z,4.13
2018-04-01T03:02:23.901Z,4.33
2018-04-01T03:04:57.879Z,4.17
2018-04-01T03:07:31.814Z,4.83
2018-04-01T03:10:06.277Z,4.77
2018-04-01T03:12:40.458Z,4.40
2018-04-01T03:15:13.824Z,4.30
2018-04-01T03:17:48.853Z,4.80
2018-04-01T03:20:22.088Z,4.63
2018-04-01T03:22:56.775Z,3.97
2018-04-01T03:25:30.163Z,4.20
2018-04-01T03:28:03.555Z,4.67
2018-04-01T03:30:37.583Z,4.37
2018-04-01T03:33:10.967Z,4.43
2018-04-01T03:35:45.207Z,4.13
2018-04-01T03:38:19.102Z,4.40
2018-04-01T03:40:52.410Z,5.00
2018-04-01T03:43:26.490Z,4.80
2018-04-01T03:45:59.805Z,5.77
2018-04-01T03:48:33.800Z,4.20
2018-04-01T03:51:07.194Z,3.90
2018-04-01T03:53:41.400Z,4.50
2018-04-01T03:56:14.970Z,5.40
2018-04-01T03:58:49.008Z,5.43
2018-04-01T04:01:22.304Z,4.47
2018-04-01T04:03:57.258Z,4.73
2018-04-01T04:06:31.875Z,4.90
2018-04-01T04:09:05.954Z,4.40
2018-04-01T04:11:39.975Z,5.47
2018-04-01T04:14:14.977Z,7.17
2018-04-01T04:16:48.302Z,5.60
2018-04-01T04:19:21.651Z,4.80
2018-04-01T04:21:57.349Z,5.27
2018-04-01T04:24:31.281Z,4.93
2018-04-01T04:27:05.491Z,4.87
2018-04-01T04:29:39.656Z,4.30
2018-04-01T04:32:12.875Z,5.53
2018-04-01T04:34:46.983Z,4.50
2018-04-01T04:37:21.094Z,4.60
2018-04-01T04:39:55.943Z,5.63
2018-04-01T04:42:30.035Z,4.67
2018-04-01T04:45:03.736Z,5.03
2018-04-01T04:47:37.139Z,4.70
2018-04-01T04:50:11.554Z,4.77
2018-04-01T04:52:46.555Z,5.13
2018-04-01T04:55:19.996Z,4.60
2018-04-01T04:57:54.500Z,4.63
2018-04-01T05:00:28.519Z,4.63
2018-04-01T05:03:01.914Z,4.73
2018-04-01T05:05:36.432Z,5.57
2018-04-01T05:08:10.546Z,4.53
2018-04-01T05:10:45.478Z,5.03
2018-04-01T05:13:19.481Z,4.80
2018-04-01T05:15:52.878Z,5.43
2018-04-01T05:18:27.094Z,4.60
2018-04-01T05:21:00.410Z,5.30
2018-04-01T05:23:34.489Z,5.33
2018-04-01T05:26:08.600Z,5.03
2018-04-01T05:28:42.329Z,5.90
2018-04-01T05:31:15.704Z,7.30
2018-04-01T05:33:48.907Z,7.53
2018-04-01T05:36:22.482Z,5.70
2018-04-01T05:38:56.609Z,5.53
2018-04-01T05:41:29.811Z,5.40
2018-04-01T05:44:03.296Z,5.60
2018-04-01T05:46:37.416Z,4.97
2018-04-01T05:49:10.696Z,5.63
2018-04-01T05:51:44.939Z,5.20
2018-04-01T05:54:18.723Z,5.57
2018-04-01T05:56:52.424Z,5.20
2018-04-01T05:59:26.532Z,4.93
2018-04-01T06:01:59.823Z,5.23
2018-04-01T06:04:33.419Z,4.47
2018-04-01T06:07:06.931Z,4.43
2018-04-01T06:09:41.028Z,4.03
2018-04-01T06:12:15.558Z,4.20
2018-04-01T06:14:49.665Z,3.93
2018-04-01T06:17:23.260Z,3.70
2018-04-01T06:19:57.475Z,4.07
2018-04-01T06:22:30.881Z,4.60
2018-04-01T06:25:05.089Z,5.10
2018-04-01T06:27:39.208Z,4.90
2018-04-01T06:30:13.311Z,4.67
2018-04-01T06:32:46.705Z,4.30
2018-04-01T06:35:19.911Z,4.60
2018-04-01T06:37:53.295Z,4.13
2018-04-01T06:40:27.496Z,5.03
2018-04-01T06:43:01.723Z,4.33
2018-04-01T06:45:36.336Z,3.77
2018-04-01T06:48:10.359Z,3.60
2018-04-01T06:50:44.053Z,4.53
2018-04-01T06:53:18.455Z,3.77
2018-04-01T06:55:53.732Z,4.23
2018-04-01T06:58:28.021Z,4.07
2018-04-01T07:01:02.395Z,3.63
2018-04-01T07:03:36.549Z,3.40
2018-04-01T07:06:09.867Z,4.50
2018-04-01T07:08:43.152Z,5.73
2018-04-01T07:11:16.768Z,4.40
2018-04-01T07:13:50.047Z,5.40
2018-04-01T07:16:23.244Z,5.20
2018-04-01T07:18:57.640Z,4.47
2018-04-01T07:34:22.214Z,4.30
2018-04-01T07:36:55.703Z,4.07
2018-04-01T07:39:28.807Z,3.47
2018-04-01T07:42:02.221Z,3.40
2018-04-01T07:44:35.483Z,3.40
2018-04-01T07:47:09.387Z,4.07
2018-04-01T07:49:43.405Z,3.90
2018-04-01T07:52:16.711Z,4.00
2018-04-01T07:54:50.033Z,3.97
2018-04-01T07:57:23.276Z,4.23
2018-04-01T07:59:57.187Z,4.30
2018-04-01T08:02:30.391Z,5.70
2018-04-01T08:05:03.880Z,5.30
2018-04-01T08:07:38.092Z,4.80
2018-04-01T08:10:11.413Z,5.23
2018-04-01T08:12:45.305Z,4.17
2018-04-01T08:15:18.697Z,3.97
2018-04-01T08:17:52.083Z,3.63
2018-04-01T08:20:26.290Z,5.07
2018-04-01T08:23:00.323Z,5.33
2018-04-01T08:25:34.621Z,6.23
2018-04-01T08:28:08.832Z,4.73
2018-04-01T08:30:42.118Z,5.30
2018-04-01T08:33:15.635Z,5.10
2018-04-01T08:35:49.239Z,3.80
2018-04-01T08:38:23.859Z,3.60
2018-04-01T08:40:57.047Z,3.20
2018-04-01T08:43:30.423Z,3.50
2018-04-01T08:46:04.748Z,3.37
2018-04-01T08:48:38.974Z,3.20
2018-04-01T08:51:12.610Z,3.43
2018-04-01T08:53:46.075Z,2.67
2018-04-01T08:56:19.349Z,3.33
2018-04-01T08:58:52.963Z,3.00
2018-04-01T09:01:26.140Z,3.10
2018-04-01T09:03:59.523Z,3.73
2018-04-01T09:06:32.826Z,3.43
2018-04-01T09:09:06.698Z,3.40
2018-04-01T09:11:39.925Z,2.63
2018-04-01T09:14:13.640Z,3.03
2018-04-01T09:16:47.532Z,3.67
2018-04-01T09:19:21.752Z,3.30
2018-04-01T09:21:55.264Z,2.90
2018-04-01T09:24:29.271Z,3.67
2018-04-01T09:27:02.850Z,3.57
2018-04-01T09:29:37.495Z,3.80
2018-04-01T09:32:10.983Z,3.60
2018-04-01T09:34:44.493Z,3.17
2018-04-01T09:37:18.487Z,3.17
2018-04-01T09:39:51.954Z,3.00
2018-04-01T09:42:25.295Z,3.20
2018-04-01T09:44:58.571Z,2.80
2018-04-01T09:47:32.678Z,2.73
2018-04-01T09:50:07.063Z,2.30
2018-04-01T09:52:40.107Z,2.73
2018-04-01T09:55:14.499Z,2.67
2018-04-01T09:57:48.521Z,2.80
2018-04-01T10:00:25.626Z,2.97
2018-04-01T10:02:59.293Z,2.60
2018-04-01T10:05:33.115Z,3.57
2018-04-01T10:08:08.339Z,3.20
2018-04-01T10:10:43.172Z,3.20
2018-04-01T10:13:18.091Z,3.30
2018-04-01T10:15:52.027Z,2.90
2018-04-01T10:18:26.724Z,3.10
2018-04-01T10:21:00.430Z,3.30
2018-04-01T10:23:35.281Z,2.83
2018-04-01T10:26:09.083Z,2.90
2018-04-01T10:28:42.978Z,2.37
2018-04-01T10:31:16.697Z,2.43
2018-04-01T10:33:51.107Z,2.10
2018-04-01T10:36:28.600Z,2.70
2018-04-01T10:39:04.344Z,2.00
2018-04-01T10:41:39.265Z,2.30
2018-04-01T10:44:14.608Z,2.30
2018-04-01T10:46:48.511Z,2.47
2018-04-01T10:49:22.524Z,2.40
2018-04-01T10:51:56.845Z,2.57
2018-04-01T10:54:29.941Z,2.57
2018-04-01T10:57:03.324Z,2.40
2018-04-01T10:59:37.549Z,2.10
2018-04-01T11:02:10.943Z,2.60
2018-04-01T11:04:45.661Z,2.47
2018-04-01T11:07:18.767Z,2.30
2018-04-01T11:09:52.760Z,2.37
2018-04-01T11:12:26.576Z,2.57
2018-04-01T11:15:00.671Z,2.07
2018-04-01T11:17:35.126Z,2.20
2018-04-01T11:20:09.227Z,2.20
2018-04-01T11:22:44.348Z,3.43
2018-04-01T11:25:18.643Z,1.83
2018-04-01T11:27:52.567Z,1.93
2018-04-01T11:30:26.375Z,1.80
2018-04-01T11:32:59.986Z,3.37
2018-04-01T11:35:36.135Z,3.23
2018-04-01T11:38:09.723Z,5.10
2018-04-01T11:40:45.687Z,5.97
2018-04-01T11:43:20.107Z,4.27
2018-04-01T11:45:56.285Z,5.20
2018-04-01T11:48:30.587Z,5.57
2018-04-01T11:51:06.122Z,5.03
2018-04-01T11:53:40.638Z,6.27
2018-04-01T11:56:16.498Z,8.47
2018-04-01T11:58:49.888Z,4.53
2018-04-01T12:01:26.283Z,4.00
2018-04-01T12:04:00.681Z,3.77
2018-04-01T12:06:36.211Z,3.00
2018-04-01T12:09:09.700Z,3.07
2018-04-01T12:11:44.047Z,3.40
2018-04-01T12:14:17.655Z,5.03
2018-04-01T12:16:52.351Z,4.30
2018-04-01T12:19:26.665Z,4.83
2018-04-01T12:22:00.887Z,7.60
2018-04-01T12:24:35.413Z,5.77
2018-04-01T12:27:09.428Z,6.23
2018-04-01T12:29:44.985Z,5.63
2018-04-01T12:32:18.672Z,5.40
2018-04-01T12:34:53.315Z,6.57
2018-04-01T12:37:28.019Z,5.57
2018-04-01T12:40:01.620Z,6.50
2018-04-01T12:42:36.634Z,6.60
2018-04-01T12:45:11.030Z,6.30
2018-04-01T12:47:46.223Z,8.03
2018-04-01T12:50:19.593Z,6.33
2018-04-01T13:05:56.535Z,5.37
2018-04-01T13:08:29.836Z,4.27
2018-04-01T13:11:03.777Z,4.47
2018-04-01T13:13:37.887Z,5.43
2018-04-01T13:16:11.155Z,4.70
2018-04-01T13:18:44.991Z,4.43
2018-04-01T13:21:18.862Z,4.80
2018-04-01T13:23:52.887Z,4.43
2018-04-01T13:26:27.107Z,4.00
2018-04-01T13:29:00.379Z,3.93
2018-04-01T13:31:33.378Z,4.30
2018-04-01T13:34:06.783Z,4.90
2018-04-01T13:36:40.885Z,6.70
2018-04-01T13:39:15.806Z,6.10
2018-04-01T13:41:49.215Z,4.60
2018-04-01T13:44:22.726Z,5.27
2018-04-01T13:46:56.309Z,4.70
2018-04-01T13:49:29.719Z,5.80
2018-04-01T13:52:04.002Z,6.83
2018-04-01T13:54:38.324Z,8.57
2018-04-01T13:57:12.341Z,7.33
2018-04-01T13:59:45.834Z,6.37
2018-04-01T14:02:19.952Z,7.97
2018-04-01T14:04:53.967Z,6.57
2018-04-01T14:07:28.175Z,8.10
2018-04-01T14:10:01.581Z,8.17
2018-04-01T14:12:36.627Z,6.67
2018-04-01T14:15:10.694Z,6.37
2018-04-01T14:17:45.348Z,6.07
2018-04-01T14:20:18.940Z,7.80
2018-04-01T14:22:52.325Z,6.13
2018-04-01T14:25:26.786Z,6.57
2018-04-01T14:28:00.016Z,5.67
2018-04-01T14:30:38.834Z,5.47
2018-04-01T14:33:13.182Z,5.63
2018-04-01T14:35:46.592Z,5.93
2018-04-01T14:38:19.839Z,5.63
2018-04-01T14:40:53.016Z,5.10
2018-04-01T14:43:26.539Z,5.20
2018-04-01T14:45:59.839Z,5.07
2018-04-01T14:48:35.113Z,5.57
2018-04-01T14:51:09.396Z,5.77
2018-04-01T14:53:42.936Z,5.73
2018-04-01T14:56:17.215Z,6.10
2018-04-01T14:58:50.732Z,6.00
2018-04-01T15:01:24.312Z,6.33
2018-04-01T15:03:57.835Z,5.97
2018-04-01T15:06:32.574Z,6.20
2018-04-01T15:09:06.654Z,6.40
2018-04-01T15:11:41.260Z,5.90
2018-04-01T15:14:15.235Z,5.50
2018-04-01T15:16:48.668Z,6.47
2018-04-01T15:19:23.366Z,5.77
2018-04-01T15:21:57.697Z,7.27
2018-04-01T15:24:31.613Z,5.10
2018-04-01T15:27:06.907Z,6.50
2018-04-01T15:29:40.038Z,4.63
2018-04-01T15:32:14.950Z,4.90
2018-04-01T15:34:48.747Z,5.27
2018-04-01T15:37:22.826Z,6.47
2018-04-01T15:39:56.200Z,5.20
2018-04-01T15:42:29.692Z,4.67
2018-04-01T15:45:03.609Z,4.33
2018-04-01T15:47:36.878Z,4.63
2018-04-01T15:50:10.684Z,8.27
2018-04-01T15:52:47.770Z,5.80
2018-04-01T15:55:22.614Z,4.53
2018-04-01T15:57:56.812Z,5.37
2018-04-01T16:00:31.048Z,5.47
2018-04-01T16:03:06.858Z,5.10
2018-04-01T16:05:40.988Z,6.93
2018-04-01T16:08:15.539Z,4.20
2018-04-01T16:10:49.751Z,6.07
2018-04-01T16:13:24.367Z,5.67
2018-04-01T16:15:59.612Z,6.10
2018-04-01T16:18:33.466Z,6.50
2018-04-01T16:21:08.354Z,6.07
2018-04-01T16:23:42.867Z,6.43
2018-04-01T16:26:16.985Z,5.30
2018-04-01T16:28:53.602Z,5.80
2018-04-01T16:31:29.882Z,5.33
2018-04-01T16:34:05.523Z,5.43
2018-04-01T16:36:38.819Z,5.30
2018-04-01T16:39:12.826Z,5.90
2018-04-01T16:54:37.020Z,6.80
2018-04-01T16:57:11.005Z,8.27
2018-04-01T16:59:45.200Z,6.33
2018-04-01T17:02:18.722Z,6.97
2018-04-01T17:04:54.083Z,7.33
2018-04-01T17:07:28.267Z,5.87
2018-04-01T17:10:02.265Z,7.00
2018-04-01T17:12:35.789Z,6.30
2018-04-01T17:15:09.213Z,5.73
2018-04-01T17:17:43.178Z,6.40
2018-04-01T17:20:17.393Z,7.60
2018-04-01T17:22:51.614Z,5.40
2018-04-01T17:25:26.699Z,5.73
2018-04-01T17:28:00.030Z,6.60
2018-04-01T17:30:33.762Z,6.63
2018-04-01T17:33:08.079Z,5.77
2018-04-01T17:35:42.978Z,6.97
2018-04-01T17:38:16.489Z,6.73
2018-04-01T17:40:50.655Z,7.53
2018-04-01T17:43:24.844Z,9.73
2018-04-01T17:45:58.503Z,8.77
2018-04-01T17:48:33.763Z,6.07
2018-04-01T17:51:07.676Z,10.10
2018-04-01T17:53:41.382Z,6.77
2018-04-01T17:56:15.968Z,5.73
2018-04-01T17:58:50.393Z,6.40
2018-04-01T18:01:24.679Z,7.10
2018-04-01T18:03:58.733Z,8.63
2018-04-01T18:06:33.666Z,7.73
2018-04-01T18:09:07.368Z,9.07
2018-04-01T18:11:40.868Z,6.00
2018-04-01T18:14:15.360Z,8.70
2018-04-01T18:16:48.690Z,10.70
2018-04-01T18:19:23.015Z,8.67
2018-04-01T18:21:56.706Z,9.13
2018-04-01T18:24:29.994Z,8.23
2018-04-01T18:27:04.516Z,10.47
2018-04-01T18:29:37.811Z,6.10
2018-04-01T18:32:14.353Z,11.27
2018-04-01T18:34:48.280Z,14.63
2018-04-01T18:37:21.593Z,17.73
2018-04-01T18:39:55.068Z,9.70
2018-04-01T18:42:28.471Z,12.53
2018-04-01T18:45:01.849Z,13.10
2018-04-01T18:47:35.262Z,12.87
2018-04-01T18:50:08.757Z,12.43
2018-04-01T18:52:42.043Z,11.03
2018-04-01T18:55:15.544Z,11.50
2018-04-01T18:57:49.156Z,10.60
2018-04-01T19:00:23.854Z,13.53
2018-04-01T19:02:57.162Z,12.10
2018-04-01T19:05:30.566Z,12.60
2018-04-01T19:08:04.893Z,11.40
2018-04-01T19:10:39.000Z,9.97
2018-04-01T19:13:12.584Z,9.83
2018-04-01T19:15:46.197Z,11.27
2018-04-01T19:18:20.716Z,8.60
2018-04-01T19:20:55.140Z,8.00
2018-04-01T19:23:29.833Z,9.33
2018-04-01T19:26:03.848Z,12.87
2018-04-01T19:28:38.910Z,9.03
2018-04-01T19:31:13.415Z,8.13
2018-04-01T19:33:47.321Z,8.17
2018-04-01T19:36:20.939Z,10.10
2018-04-01T19:38:55.209Z,8.70
2018-04-01T19:41:29.402Z,8.27
2018-04-01T19:44:04.580Z,10.37
2018-04-01T19:46:38.523Z,10.17
2018-04-01T19:49:14.038Z,11.93
2018-04-01T19:51:47.976Z,9.13
2018-04-01T19:54:22.794Z,13.73
2018-04-01T19:56:57.220Z,17.17
2018-04-01T19:59:31.072Z,23.70
2018-04-01T20:02:04.803Z,28.90
2018-04-01T20:04:39.599Z,14.63
2018-04-01T20:07:14.676Z,23.83
2018-04-01T20:09:48.392Z,12.00
2018-04-01T20:12:22.293Z,18.57
2018-04-01T20:14:56.379Z,12.67
2018-04-01T20:17:31.006Z,15.97
2018-04-01T20:20:05.323Z,15.50
2018-04-01T20:22:40.275Z,13.60
2018-04-01T20:25:14.272Z,20.33
2018-04-01T20:27:48.306Z,23.00
2018-04-01T20:30:22.194Z,15.87
2018-04-01T20:32:56.900Z,12.40
2018-04-01T20:35:31.038Z,17.53
2018-04-01T20:38:06.630Z,16.03
2018-04-01T20:53:43.130Z,13.80
2018-04-01T20:56:17.973Z,14.13
2018-04-01T20:58:52.158Z,14.10
2018-04-01T21:01:26.828Z,15.20
2018-04-01T21:04:01.907Z,14.80
2018-04-01T21:06:36.148Z,15.27
2018-04-01T21:09:10.658Z,17.30
2018-04-01T21:11:44.818Z,14.50
2018-04-01T21:14:18.772Z,17.33
2018-04-01T21:16:52.486Z,15.27
2018-04-01T21:19:27.008Z,15.73
2018-04-01T21:22:02.037Z,15.87
2018-04-01T21:24:36.569Z,13.93
2018-04-01T21:27:10.363Z,16.17
2018-04-01T21:29:45.012Z,13.70
2018-04-01T21:32:18.891Z,14.77
2018-04-01T21:34:53.734Z,17.40
2018-04-01T21:37:28.136Z,17.03
2018-04-01T21:40:02.176Z,25.43
2018-04-01T21:42:36.559Z,26.10
2018-04-01T21:45:10.269Z,18.10
2018-04-01T21:47:45.408Z,18.87
2018-04-01T21:50:19.955Z,15.70
2018-04-01T21:52:55.278Z,11.60
2018-04-01T21:55:29.100Z,13.17
2018-04-01T21:58:03.390Z,12.07
2018-04-01T22:00:37.903Z,11.57
2018-04-01T22:03:13.606Z,11.13
2018-04-01T22:05:47.876Z,14.67
2018-04-01T22:08:22.508Z,15.23
2018-04-01T22:10:57.126Z,11.40
2018-04-01T22:13:31.195Z,12.07
2018-04-01T22:16:06.083Z,11.27
2018-04-01T22:18:39.962Z,12.53
2018-04-01T22:21:14.612Z,10.87
2018-04-01T22:23:49.112Z,14.20
2018-04-01T22:26:22.882Z,11.60
2018-04-01T22:28:57.734Z,12.87
2018-04-01T22:31:31.556Z,11.67
2018-04-01T22:34:05.419Z,10.87
2018-04-01T22:36:41.331Z,11.50
2018-04-01T22:39:17.381Z,13.63
2018-04-01T22:41:51.947Z,10.63
2018-04-01T22:44:33.852Z,10.90
2018-04-01T22:47:08.408Z,11.13
2018-04-01T22:49:43.403Z,10.80
2018-04-01T22:52:17.367Z,10.83
2018-04-01T22:54:51.470Z,12.07
2018-04-01T22:57:26.196Z,11.37
2018-04-01T23:00:00.831Z,10.33
2018-04-01T23:02:35.846Z,9.53
2018-04-01T23:05:09.647Z,9.73
2018-04-01T23:07:44.656Z,9.93
2018-04-01T23:10:19.233Z,9.43
2018-04-01T23:12:54.148Z,10.03
2018-04-01T23:15:28.564Z,11.83
2018-04-01T23:18:03.296Z,11.97
2018-04-01T23:20:37.360Z,12.23
2018-04-01T23:23:11.195Z,10.07
2018-04-01T23:25:46.430Z,12.43
2018-04-01T23:28:20.168Z,9.47
2018-04-01T23:30:54.625Z,13.30
2018-04-01T23:33:29.181Z,10.80
2018-04-01T23:36:04.437Z,10.03
2018-04-01T23:38:38.426Z,11.23
2018-04-01T23:41:12.342Z,10.13
2018-04-01T23:43:46.956Z,10.97
2018-04-01T23:46:20.756Z,10.83
2018-04-01T23:48:55.788Z,12.73
2018-04-01T23:51:30.415Z,9.77
2018-04-01T23:54:05.131Z,12.37
2018-04-01T23:56:38.977Z,12.60
2018-04-01T23:59:13.969Z,12.57
